sensor_id;sensor_type;location;lat;lon;timestamp;temperature;humidity
18779;DHT22;9518;51.720;14.384;2023-07-09T00:01:13;16.10;1.00
18779;DHT22;9518;51.720;14.384;2023-07-09T00:03:42;16.10;1.00
18779;DHT22;9518;51.720;14.384;2023-07-09T00:06:10;16.00;1.00
18779;DHT22;9518;51.720;14.384;2023-07-09T00:08:42;16.00;1.00
18779;DHT22;9518;51.720;14.384;2023-07-09T00:11:12;16.00;1.00
18779;DHT22;9518;51.720;14.384;2023-07-09T00:13:39;15.90;1.00
18779;DHT22;9518;51.720;14.384;2023-07-09T00:16:13;15.80;1.00
18779;DHT22;9518;51.720;14.384;2023-07-09T00:18:40;15.80;1.00
18779;DHT22;9518;51.720;14.384;2023-07-09T00:21:07;15.70;1.00
18779;DHT22;9518;51.720;14.384;2023-07-09T00:23:34;15.60;1.00
18779;DHT22;9518;51.720;14.384;2023-07-09T00:26:07;15.60;1.00
18779;DHT22;9518;51.720;14.384;2023-07-09T00:28:35;15.60;1.00
18779;DHT22;9518;51.720;14.384;2023-07-09T00:31:02;15.60;1.00
18779;DHT22;9518;51.720;14.384;2023-07-09T00:33:31;15.70;1.00
18779;DHT22;9518;51.720;14.384;2023-07-09T00:35:58;15.70;1.00
18779;DHT22;9518;51.720;14.384;2023-07-09T00:38:26;15.70;1.00
18779;DHT22;9518;51.720;14.384;2023-07-09T00:41:04;15.60;1.00
18779;DHT22;9518;51.720;14.384;2023-07-09T00:43:34;15.60;1.00
18779;DHT22;9518;51.720;14.384;2023-07-09T00:46:16;15.50;1.00
18779;DHT22;9518;51.720;14.384;2023-07-09T00:48:45;15.50;1.00
18779;DHT22;9518;51.720;14.384;2023-07-09T00:51:17;15.30;1.00
18779;DHT22;9518;51.720;14.384;2023-07-09T00:53:46;15.20;1.00
18779;DHT22;9518;51.720;14.384;2023-07-09T00:56:20;15.20;26.90
18779;DHT22;9518;51.720;14.384;2023-07-09T00:58:52;15.30;99.90
18779;DHT22;9518;51.720;14.384;2023-07-09T01:01:20;15.30;99.90
18779;DHT22;9518;51.720;14.384;2023-07-09T01:03:52;15.40;96.00
18779;DHT22;9518;51.720;14.384;2023-07-09T01:06:28;15.40;27.90
18779;DHT22;9518;51.720;14.384;2023-07-09T01:08:58;15.40;1.00
18779;DHT22;9518;51.720;14.384;2023-07-09T01:11:26;15.40;1.00
18779;DHT22;9518;51.720;14.384;2023-07-09T01:13:55;15.40;1.00
18779;DHT22;9518;51.720;14.384;2023-07-09T01:16:26;15.30;1.00
18779;DHT22;9518;51.720;14.384;2023-07-09T01:18:55;15.20;1.00
18779;DHT22;9518;51.720;14.384;2023-07-09T01:21:27;15.10;99.90
18779;DHT22;9518;51.720;14.384;2023-07-09T01:23:54;15.00;99.90
18779;DHT22;9518;51.720;14.384;2023-07-09T01:26:25;14.90;99.90
18779;DHT22;9518;51.720;14.384;2023-07-09T01:28:54;14.90;99.90
18779;DHT22;9518;51.720;14.384;2023-07-09T01:31:21;14.90;99.90
18779;DHT22;9518;51.720;14.384;2023-07-09T01:33:49;14.90;1.00
18779;DHT22;9518;51.720;14.384;2023-07-09T01:36:19;15.00;1.00
18779;DHT22;9518;51.720;14.384;2023-07-09T01:38:50;15.00;1.00
18779;DHT22;9518;51.720;14.384;2023-07-09T01:41:18;15.00;1.00
18779;DHT22;9518;51.720;14.384;2023-07-09T01:43:45;15.00;1.00
18779;DHT22;9518;51.720;14.384;2023-07-09T01:46:12;14.90;1.00
18779;DHT22;9518;51.720;14.384;2023-07-09T01:48:40;14.90;1.00
18779;DHT22;9518;51.720;14.384;2023-07-09T01:51:08;14.80;99.90
18779;DHT22;9518;51.720;14.384;2023-07-09T01:53:36;14.70;1.00
18779;DHT22;9518;51.720;14.384;2023-07-09T01:56:05;14.70;1.00
18779;DHT22;9518;51.720;14.384;2023-07-09T01:58:33;14.70;1.00
18779;DHT22;9518;51.720;14.384;2023-07-09T02:01:00;14.70;1.00
18779;DHT22;9518;51.720;14.384;2023-07-09T02:03:27;14.60;99.90
18779;DHT22;9518;51.720;14.384;2023-07-09T02:05:55;14.60;99.90
18779;DHT22;9518;51.720;14.384;2023-07-09T02:08:23;14.50;1.00
18779;DHT22;9518;51.720;14.384;2023-07-09T02:10:50;14.40;1.00
18779;DHT22;9518;51.720;14.384;2023-07-09T02:13:21;14.40;1.00
18779;DHT22;9518;51.720;14.384;2023-07-09T02:15:48;14.40;1.00
18779;DHT22;9518;51.720;14.384;2023-07-09T02:18:16;14.40;1.00
18779;DHT22;9518;51.720;14.384;2023-07-09T02:20:45;14.40;1.00
18779;DHT22;9518;51.720;14.384;2023-07-09T02:23:26;14.30;1.00
18779;DHT22;9518;51.720;14.384;2023-07-09T02:25:53;14.30;1.00
18779;DHT22;9518;51.720;14.384;2023-07-09T02:28:22;14.20;1.00
18779;DHT22;9518;51.720;14.384;2023-07-09T02:30:49;14.20;1.00
18779;DHT22;9518;51.720;14.384;2023-07-09T02:33:16;14.20;1.00
18779;DHT22;9518;51.720;14.384;2023-07-09T02:35:46;14.10;1.00
18779;DHT22;9518;51.720;14.384;2023-07-09T02:38:13;14.10;18.70
18779;DHT22;9518;51.720;14.384;2023-07-09T02:40:40;14.10;1.00
18779;DHT22;9518;51.720;14.384;2023-07-09T02:43:08;14.10;1.00
18779;DHT22;9518;51.720;14.384;2023-07-09T02:45:36;14.10;1.00
18779;DHT22;9518;51.720;14.384;2023-07-09T02:48:04;14.10;1.00
18779;DHT22;9518;51.720;14.384;2023-07-09T02:50:31;14.00;1.00
18779;DHT22;9518;51.720;14.384;2023-07-09T02:52:58;14.00;99.90
18779;DHT22;9518;51.720;14.384;2023-07-09T02:55:25;14.00;99.90
18779;DHT22;9518;51.720;14.384;2023-07-09T02:57:52;14.00;1.00
18779;DHT22;9518;51.720;14.384;2023-07-09T03:00:19;14.00;99.90
18779;DHT22;9518;51.720;14.384;2023-07-09T03:02:48;14.00;1.00
18779;DHT22;9518;51.720;14.384;2023-07-09T03:05:15;14.00;1.00
18779;DHT22;9518;51.720;14.384;2023-07-09T03:07:42;13.90;1.00
18779;DHT22;9518;51.720;14.384;2023-07-09T03:10:09;13.90;1.00
18779;DHT22;9518;51.720;14.384;2023-07-09T03:12:36;13.90;1.00
18779;DHT22;9518;51.720;14.384;2023-07-09T03:15:04;13.90;1.00
18779;DHT22;9518;51.720;14.384;2023-07-09T03:17:34;13.90;1.00
18779;DHT22;9518;51.720;14.384;2023-07-09T03:20:03;13.90;1.00
18779;DHT22;9518;51.720;14.384;2023-07-09T03:22:35;13.90;1.00
18779;DHT22;9518;51.720;14.384;2023-07-09T03:25:03;13.80;1.00
18779;DHT22;9518;51.720;14.384;2023-07-09T03:27:30;13.90;1.00
18779;DHT22;9518;51.720;14.384;2023-07-09T03:29:57;13.90;1.00
18779;DHT22;9518;51.720;14.384;2023-07-09T03:32:26;14.00;99.90
18779;DHT22;9518;51.720;14.384;2023-07-09T03:34:53;14.00;99.90
18779;DHT22;9518;51.720;14.384;2023-07-09T03:37:21;14.10;33.20
18779;DHT22;9518;51.720;14.384;2023-07-09T03:39:48;14.10;1.00
18779;DHT22;9518;51.720;14.384;2023-07-09T03:42:15;14.20;50.40
18779;DHT22;9518;51.720;14.384;2023-07-09T03:44:43;14.20;1.00
18779;DHT22;9518;51.720;14.384;2023-07-09T03:47:10;14.30;1.00
18779;DHT22;9518;51.720;14.384;2023-07-09T03:49:37;14.40;1.00
18779;DHT22;9518;51.720;14.384;2023-07-09T03:52:07;14.50;1.00
18779;DHT22;9518;51.720;14.384;2023-07-09T03:54:35;14.50;1.00
18779;DHT22;9518;51.720;14.384;2023-07-09T03:57:03;14.60;1.00
18779;DHT22;9518;51.720;14.384;2023-07-09T03:59:30;14.70;1.00
18779;DHT22;9518;51.720;14.384;2023-07-09T04:01:57;14.80;1.00
18779;DHT22;9518;51.720;14.384;2023-07-09T04:04:24;14.90;1.00
18779;DHT22;9518;51.720;14.384;2023-07-09T04:06:51;14.90;1.00
18779;DHT22;9518;51.720;14.384;2023-07-09T04:09:18;15.10;99.90
18779;DHT22;9518;51.720;14.384;2023-07-09T04:11:47;15.20;1.00
18779;DHT22;9518;51.720;14.384;2023-07-09T04:14:14;15.30;99.90
18779;DHT22;9518;51.720;14.384;2023-07-09T04:16:41;15.40;99.50
18779;DHT22;9518;51.720;14.384;2023-07-09T04:19:08;15.50;1.00
18779;DHT22;9518;51.720;14.384;2023-07-09T04:21:35;15.70;1.00
18779;DHT22;9518;51.720;14.384;2023-07-09T04:24:02;15.80;1.00
18779;DHT22;9518;51.720;14.384;2023-07-09T04:26:29;16.00;1.00
18779;DHT22;9518;51.720;14.384;2023-07-09T04:28:58;16.20;1.00
18779;DHT22;9518;51.720;14.384;2023-07-09T04:31:25;16.30;1.00
18779;DHT22;9518;51.720;14.384;2023-07-09T04:33:52;16.40;1.00
18779;DHT22;9518;51.720;14.384;2023-07-09T04:36:19;16.60;1.00
18779;DHT22;9518;51.720;14.384;2023-07-09T04:38:46;16.80;99.90
18779;DHT22;9518;51.720;14.384;2023-07-09T04:41:13;17.00;99.90
18779;DHT22;9518;51.720;14.384;2023-07-09T04:43:40;17.20;99.90
18779;DHT22;9518;51.720;14.384;2023-07-09T04:46:08;17.30;99.90
18779;DHT22;9518;51.720;14.384;2023-07-09T04:48:35;17.40;99.90
18779;DHT22;9518;51.720;14.384;2023-07-09T04:51:03;17.60;99.90
18779;DHT22;9518;51.720;14.384;2023-07-09T04:53:30;17.80;99.90
18779;DHT22;9518;51.720;14.384;2023-07-09T04:55:57;18.00;68.00
18779;DHT22;9518;51.720;14.384;2023-07-09T04:58:25;18.30;1.00
18779;DHT22;9518;51.720;14.384;2023-07-09T05:00:52;18.50;1.00
18779;DHT22;9518;51.720;14.384;2023-07-09T05:03:20;18.70;1.00
18779;DHT22;9518;51.720;14.384;2023-07-09T05:05:47;18.80;1.00
18779;DHT22;9518;51.720;14.384;2023-07-09T05:08:15;19.10;1.00
18779;DHT22;9518;51.720;14.384;2023-07-09T05:10:42;19.30;1.00
18779;DHT22;9518;51.720;14.384;2023-07-09T05:13:09;19.50;1.00
18779;DHT22;9518;51.720;14.384;2023-07-09T05:15:40;19.70;1.00
18779;DHT22;9518;51.720;14.384;2023-07-09T05:18:08;19.80;1.00
18779;DHT22;9518;51.720;14.384;2023-07-09T05:20:36;19.90;1.00
18779;DHT22;9518;51.720;14.384;2023-07-09T05:23:04;20.00;1.00
18779;DHT22;9518;51.720;14.384;2023-07-09T05:25:31;20.20;1.00
18779;DHT22;9518;51.720;14.384;2023-07-09T05:27:58;20.40;1.00
18779;DHT22;9518;51.720;14.384;2023-07-09T05:30:25;20.60;1.00
18779;DHT22;9518;51.720;14.384;2023-07-09T05:32:53;20.80;1.00
18779;DHT22;9518;51.720;14.384;2023-07-09T05:35:23;21.10;1.00
18779;DHT22;9518;51.720;14.384;2023-07-09T05:37:52;21.30;1.00
18779;DHT22;9518;51.720;14.384;2023-07-09T05:40:20;21.50;1.00
18779;DHT22;9518;51.720;14.384;2023-07-09T05:42:47;21.70;1.00
18779;DHT22;9518;51.720;14.384;2023-07-09T05:45:15;21.90;1.00
18779;DHT22;9518;51.720;14.384;2023-07-09T05:47:42;22.00;1.00
18779;DHT22;9518;51.720;14.384;2023-07-09T05:50:09;22.20;1.00
18779;DHT22;9518;51.720;14.384;2023-07-09T05:52:36;22.30;1.00
18779;DHT22;9518;51.720;14.384;2023-07-09T05:55:07;22.40;1.00
18779;DHT22;9518;51.720;14.384;2023-07-09T05:57:34;22.60;1.00
18779;DHT22;9518;51.720;14.384;2023-07-09T06:00:01;22.90;1.00
18779;DHT22;9518;51.720;14.384;2023-07-09T06:02:28;23.10;1.00
18779;DHT22;9518;51.720;14.384;2023-07-09T06:04:55;23.30;1.00
18779;DHT22;9518;51.720;14.384;2023-07-09T06:07:24;23.50;1.00
18779;DHT22;9518;51.720;14.384;2023-07-09T06:09:51;23.60;1.00
18779;DHT22;9518;51.720;14.384;2023-07-09T06:12:19;23.80;1.00
18779;DHT22;9518;51.720;14.384;2023-07-09T06:14:46;23.90;1.00
18779;DHT22;9518;51.720;14.384;2023-07-09T06:17:13;24.00;1.00
18779;DHT22;9518;51.720;14.384;2023-07-09T06:19:40;24.10;1.00
18779;DHT22;9518;51.720;14.384;2023-07-09T06:22:07;24.40;1.00
18779;DHT22;9518;51.720;14.384;2023-07-09T06:24:34;24.60;1.00
18779;DHT22;9518;51.720;14.384;2023-07-09T06:27:02;24.80;1.00
18779;DHT22;9518;51.720;14.384;2023-07-09T06:29:30;24.90;1.00
18779;DHT22;9518;51.720;14.384;2023-07-09T06:31:57;25.10;1.00
18779;DHT22;9518;51.720;14.384;2023-07-09T06:34:24;25.10;1.00
18779;DHT22;9518;51.720;14.384;2023-07-09T06:36:51;25.20;1.00
18779;DHT22;9518;51.720;14.384;2023-07-09T06:39:18;25.50;1.00
18779;DHT22;9518;51.720;14.384;2023-07-09T06:41:46;25.70;1.00
18779;DHT22;9518;51.720;14.384;2023-07-09T06:44:13;25.70;1.00
18779;DHT22;9518;51.720;14.384;2023-07-09T06:46:41;25.70;1.00
18779;DHT22;9518;51.720;14.384;2023-07-09T06:49:10;26.10;1.00
18779;DHT22;9518;51.720;14.384;2023-07-09T06:51:37;26.40;1.00
18779;DHT22;9518;51.720;14.384;2023-07-09T06:54:04;26.60;1.00
18779;DHT22;9518;51.720;14.384;2023-07-09T06:56:34;26.90;1.00
18779;DHT22;9518;51.720;14.384;2023-07-09T06:59:01;27.20;1.00
18779;DHT22;9518;51.720;14.384;2023-07-09T07:01:28;27.20;1.00
18779;DHT22;9518;51.720;14.384;2023-07-09T07:03:56;27.50;1.00
18779;DHT22;9518;51.720;14.384;2023-07-09T07:06:23;27.70;1.00
18779;DHT22;9518;51.720;14.384;2023-07-09T07:08:53;27.70;1.00
18779;DHT22;9518;51.720;14.384;2023-07-09T07:11:20;27.80;1.00
18779;DHT22;9518;51.720;14.384;2023-07-09T07:13:48;28.10;1.00
18779;DHT22;9518;51.720;14.384;2023-07-09T07:16:17;28.20;1.00
18779;DHT22;9518;51.720;14.384;2023-07-09T07:18:44;28.10;1.00
18779;DHT22;9518;51.720;14.384;2023-07-09T07:21:12;28.20;1.00
18779;DHT22;9518;51.720;14.384;2023-07-09T07:23:39;28.20;1.00
18779;DHT22;9518;51.720;14.384;2023-07-09T07:26:06;28.20;1.00
18779;DHT22;9518;51.720;14.384;2023-07-09T07:28:35;28.40;1.00
18779;DHT22;9518;51.720;14.384;2023-07-09T07:31:03;28.60;1.00
18779;DHT22;9518;51.720;14.384;2023-07-09T07:33:30;28.70;1.00
18779;DHT22;9518;51.720;14.384;2023-07-09T07:35:57;29.10;1.00
18779;DHT22;9518;51.720;14.384;2023-07-09T07:38:32;29.20;1.00
18779;DHT22;9518;51.720;14.384;2023-07-09T07:41:01;29.40;1.00
18779;DHT22;9518;51.720;14.384;2023-07-09T07:43:28;29.50;1.00
18779;DHT22;9518;51.720;14.384;2023-07-09T07:45:55;29.60;1.00
18779;DHT22;9518;51.720;14.384;2023-07-09T07:48:22;29.90;1.00
18779;DHT22;9518;51.720;14.384;2023-07-09T07:50:49;30.00;1.00
18779;DHT22;9518;51.720;14.384;2023-07-09T07:53:16;30.30;1.00
18779;DHT22;9518;51.720;14.384;2023-07-09T07:55:45;30.40;1.00
18779;DHT22;9518;51.720;14.384;2023-07-09T07:58:13;30.70;1.00
18779;DHT22;9518;51.720;14.384;2023-07-09T08:00:40;30.80;1.00
18779;DHT22;9518;51.720;14.384;2023-07-09T08:03:07;31.10;1.00
18779;DHT22;9518;51.720;14.384;2023-07-09T08:05:34;31.30;1.00
18779;DHT22;9518;51.720;14.384;2023-07-09T08:08:01;31.50;1.00
18779;DHT22;9518;51.720;14.384;2023-07-09T08:10:28;31.70;1.00
18779;DHT22;9518;51.720;14.384;2023-07-09T08:12:57;31.80;1.00
18779;DHT22;9518;51.720;14.384;2023-07-09T08:15:26;31.60;1.00
18779;DHT22;9518;51.720;14.384;2023-07-09T08:18:00;30.90;1.00
18779;DHT22;9518;51.720;14.384;2023-07-09T08:20:32;30.50;1.00
18779;DHT22;9518;51.720;14.384;2023-07-09T08:23:07;30.40;1.00
18779;DHT22;9518;51.720;14.384;2023-07-09T08:25:42;30.70;1.00
18779;DHT22;9518;51.720;14.384;2023-07-09T08:28:11;31.30;1.00
18779;DHT22;9518;51.720;14.384;2023-07-09T08:30:41;31.30;1.00
18779;DHT22;9518;51.720;14.384;2023-07-09T08:33:08;31.80;1.00
18779;DHT22;9518;51.720;14.384;2023-07-09T08:35:36;32.40;1.00
18779;DHT22;9518;51.720;14.384;2023-07-09T08:38:03;32.60;1.00
18779;DHT22;9518;51.720;14.384;2023-07-09T08:40:31;32.60;1.00
18779;DHT22;9518;51.720;14.384;2023-07-09T08:43:05;32.70;1.00
18779;DHT22;9518;51.720;14.384;2023-07-09T08:45:40;33.00;1.00
18779;DHT22;9518;51.720;14.384;2023-07-09T08:48:15;33.30;1.00
18779;DHT22;9518;51.720;14.384;2023-07-09T08:50:50;33.50;1.00
18779;DHT22;9518;51.720;14.384;2023-07-09T08:53:21;33.60;1.00
18779;DHT22;9518;51.720;14.384;2023-07-09T08:55:50;33.60;1.00
18779;DHT22;9518;51.720;14.384;2023-07-09T08:58:23;33.40;1.00
18779;DHT22;9518;51.720;14.384;2023-07-09T09:00:56;33.20;1.00
18779;DHT22;9518;51.720;14.384;2023-07-09T09:03:31;33.20;1.00
18779;DHT22;9518;51.720;14.384;2023-07-09T09:06:03;33.20;1.00
18779;DHT22;9518;51.720;14.384;2023-07-09T09:08:39;33.20;1.00
18779;DHT22;9518;51.720;14.384;2023-07-09T09:11:21;33.30;1.00
18779;DHT22;9518;51.720;14.384;2023-07-09T09:13:53;33.40;1.00
18779;DHT22;9518;51.720;14.384;2023-07-09T09:16:26;33.70;1.00
18779;DHT22;9518;51.720;14.384;2023-07-09T09:18:57;33.90;1.00
18779;DHT22;9518;51.720;14.384;2023-07-09T09:21:28;34.10;1.00
18779;DHT22;9518;51.720;14.384;2023-07-09T09:24:12;34.30;1.00
18779;DHT22;9518;51.720;14.384;2023-07-09T09:26:42;34.30;1.00
18779;DHT22;9518;51.720;14.384;2023-07-09T09:29:11;34.20;1.00
18779;DHT22;9518;51.720;14.384;2023-07-09T09:31:45;34.40;1.00
18779;DHT22;9518;51.720;14.384;2023-07-09T09:34:21;34.60;1.00
18779;DHT22;9518;51.720;14.384;2023-07-09T09:36:51;34.90;1.00
18779;DHT22;9518;51.720;14.384;2023-07-09T09:39:19;34.80;1.00
18779;DHT22;9518;51.720;14.384;2023-07-09T09:41:46;34.80;1.00
18779;DHT22;9518;51.720;14.384;2023-07-09T09:44:18;35.00;1.00
18779;DHT22;9518;51.720;14.384;2023-07-09T09:46:48;35.20;1.00
18779;DHT22;9518;51.720;14.384;2023-07-09T09:49:16;35.30;1.00
18779;DHT22;9518;51.720;14.384;2023-07-09T09:51:46;34.90;1.00
18779;DHT22;9518;51.720;14.384;2023-07-09T09:54:17;34.70;1.00
18779;DHT22;9518;51.720;14.384;2023-07-09T09:56:45;35.00;1.00
18779;DHT22;9518;51.720;14.384;2023-07-09T09:59:19;35.00;1.00
18779;DHT22;9518;51.720;14.384;2023-07-09T10:01:57;35.40;1.00
18779;DHT22;9518;51.720;14.384;2023-07-09T10:04:26;35.50;1.00
18779;DHT22;9518;51.720;14.384;2023-07-09T10:06:56;35.50;1.00
18779;DHT22;9518;51.720;14.384;2023-07-09T10:09:33;35.50;1.00
18779;DHT22;9518;51.720;14.384;2023-07-09T10:12:15;35.60;1.00
18779;DHT22;9518;51.720;14.384;2023-07-09T10:14:49;35.10;99.90
18779;DHT22;9518;51.720;14.384;2023-07-09T10:17:26;35.00;99.90
18779;DHT22;9518;51.720;14.384;2023-07-09T10:19:57;34.80;99.90
18779;DHT22;9518;51.720;14.384;2023-07-09T10:22:42;35.10;1.00
18779;DHT22;9518;51.720;14.384;2023-07-09T10:25:28;35.80;1.00
18779;DHT22;9518;51.720;14.384;2023-07-09T10:30:53;36.70;1.00
18779;DHT22;9518;51.720;14.384;2023-07-09T10:33:33;36.90;1.00
18779;DHT22;9518;51.720;14.384;2023-07-09T10:36:25;37.50;1.00
18779;DHT22;9518;51.720;14.384;2023-07-09T10:39:02;37.20;1.00
18779;DHT22;9518;51.720;14.384;2023-07-09T10:41:31;37.10;1.00
18779;DHT22;9518;51.720;14.384;2023-07-09T10:44:06;37.30;1.00
18779;DHT22;9518;51.720;14.384;2023-07-09T10:46:39;37.50;1.00
18779;DHT22;9518;51.720;14.384;2023-07-09T10:49:12;37.30;1.00
18779;DHT22;9518;51.720;14.384;2023-07-09T10:51:46;37.20;1.00
18779;DHT22;9518;51.720;14.384;2023-07-09T10:54:24;37.20;1.00
18779;DHT22;9518;51.720;14.384;2023-07-09T10:56:59;37.20;1.00
18779;DHT22;9518;51.720;14.384;2023-07-09T10:59:31;37.50;1.00
18779;DHT22;9518;51.720;14.384;2023-07-09T11:02:15;38.20;1.00
18779;DHT22;9518;51.720;14.384;2023-07-09T11:04:48;38.50;1.00
18779;DHT22;9518;51.720;14.384;2023-07-09T11:07:20;38.80;1.00
18779;DHT22;9518;51.720;14.384;2023-07-09T11:09:49;38.70;1.00
18779;DHT22;9518;51.720;14.384;2023-07-09T11:12:27;39.10;1.00
18779;DHT22;9518;51.720;14.384;2023-07-09T11:14:58;38.70;99.90
18779;DHT22;9518;51.720;14.384;2023-07-09T11:17:27;38.70;99.90
18779;DHT22;9518;51.720;14.384;2023-07-09T11:19:59;38.80;99.90
18779;DHT22;9518;51.720;14.384;2023-07-09T11:22:36;38.40;99.90
18779;DHT22;9518;51.720;14.384;2023-07-09T11:25:08;38.90;99.90
18779;DHT22;9518;51.720;14.384;2023-07-09T11:27:48;39.20;99.90
18779;DHT22;9518;51.720;14.384;2023-07-09T11:30:22;39.60;99.90
18779;DHT22;9518;51.720;14.384;2023-07-09T11:32:54;39.60;99.90
18779;DHT22;9518;51.720;14.384;2023-07-09T11:35:27;39.30;99.90
18779;DHT22;9518;51.720;14.384;2023-07-09T11:37:54;38.80;99.90
18779;DHT22;9518;51.720;14.384;2023-07-09T11:40:24;38.40;99.90
18779;DHT22;9518;51.720;14.384;2023-07-09T11:42:53;38.70;99.90
18779;DHT22;9518;51.720;14.384;2023-07-09T11:45:24;38.50;99.90
18779;DHT22;9518;51.720;14.384;2023-07-09T11:47:58;38.00;99.90
18779;DHT22;9518;51.720;14.384;2023-07-09T11:50:35;38.20;99.90
18779;DHT22;9518;51.720;14.384;2023-07-09T11:53:19;38.70;99.90
18779;DHT22;9518;51.720;14.384;2023-07-09T11:55:49;39.70;99.90
18779;DHT22;9518;51.720;14.384;2023-07-09T11:58:19;39.80;99.90
18779;DHT22;9518;51.720;14.384;2023-07-09T12:00:48;39.40;99.90
18779;DHT22;9518;51.720;14.384;2023-07-09T12:03:19;39.20;99.90
18779;DHT22;9518;51.720;14.384;2023-07-09T12:05:51;39.30;99.90
18779;DHT22;9518;51.720;14.384;2023-07-09T12:08:22;39.80;99.90
18779;DHT22;9518;51.720;14.384;2023-07-09T12:10:53;40.00;99.90
18779;DHT22;9518;51.720;14.384;2023-07-09T12:13:20;40.10;99.90
18779;DHT22;9518;51.720;14.384;2023-07-09T12:15:47;40.40;99.90
18779;DHT22;9518;51.720;14.384;2023-07-09T12:18:15;39.70;99.90
18779;DHT22;9518;51.720;14.384;2023-07-09T12:20:51;38.70;99.90
18779;DHT22;9518;51.720;14.384;2023-07-09T12:23:21;38.80;99.90
18779;DHT22;9518;51.720;14.384;2023-07-09T12:25:55;39.70;99.90
18779;DHT22;9518;51.720;14.384;2023-07-09T12:28:27;40.50;99.90
18779;DHT22;9518;51.720;14.384;2023-07-09T12:30:54;40.80;99.90
18779;DHT22;9518;51.720;14.384;2023-07-09T12:33:24;41.00;99.90
18779;DHT22;9518;51.720;14.384;2023-07-09T12:35:57;40.90;99.90
18779;DHT22;9518;51.720;14.384;2023-07-09T12:38:28;40.30;99.90
18779;DHT22;9518;51.720;14.384;2023-07-09T12:40:56;39.50;99.90
18779;DHT22;9518;51.720;14.384;2023-07-09T12:43:29;39.20;99.90
18779;DHT22;9518;51.720;14.384;2023-07-09T12:45:58;39.40;99.90
18779;DHT22;9518;51.720;14.384;2023-07-09T12:48:27;39.40;99.90
18779;DHT22;9518;51.720;14.384;2023-07-09T12:50:57;39.20;99.90
18779;DHT22;9518;51.720;14.384;2023-07-09T12:53:36;39.20;99.90
18779;DHT22;9518;51.720;14.384;2023-07-09T12:56:12;39.00;99.90
18779;DHT22;9518;51.720;14.384;2023-07-09T12:58:39;39.00;99.90
18779;DHT22;9518;51.720;14.384;2023-07-09T13:01:13;39.00;99.90
18779;DHT22;9518;51.720;14.384;2023-07-09T13:04:45;39.50;99.90
18779;DHT22;9518;51.720;14.384;2023-07-09T13:06:36;40.00;99.90
18779;DHT22;9518;51.720;14.384;2023-07-09T13:09:18;40.20;99.90
18779;DHT22;9518;51.720;14.384;2023-07-09T13:11:52;40.40;99.90
18779;DHT22;9518;51.720;14.384;2023-07-09T13:14:25;40.80;99.90
18779;DHT22;9518;51.720;14.384;2023-07-09T13:17:09;41.50;99.90
18779;DHT22;9518;51.720;14.384;2023-07-09T13:19:44;42.40;99.90
18779;DHT22;9518;51.720;14.384;2023-07-09T13:22:19;43.20;99.90
18779;DHT22;9518;51.720;14.384;2023-07-09T13:25:20;43.10;99.90
18779;DHT22;9518;51.720;14.384;2023-07-09T13:27:48;42.00;99.90
18779;DHT22;9518;51.720;14.384;2023-07-09T13:30:18;41.10;99.90
18779;DHT22;9518;51.720;14.384;2023-07-09T13:32:46;41.20;99.90
18779;DHT22;9518;51.720;14.384;2023-07-09T13:35:15;41.70;99.90
18779;DHT22;9518;51.720;14.384;2023-07-09T13:37:45;41.80;99.90
18779;DHT22;9518;51.720;14.384;2023-07-09T13:40:14;42.30;99.90
18779;DHT22;9518;51.720;14.384;2023-07-09T13:42:42;43.10;99.90
18779;DHT22;9518;51.720;14.384;2023-07-09T13:45:20;43.10;99.90
18779;DHT22;9518;51.720;14.384;2023-07-09T13:47:48;43.30;99.90
18779;DHT22;9518;51.720;14.384;2023-07-09T13:50:16;43.50;99.90
18779;DHT22;9518;51.720;14.384;2023-07-09T13:52:47;43.50;99.90
18779;DHT22;9518;51.720;14.384;2023-07-09T13:55:26;43.30;99.90
18779;DHT22;9518;51.720;14.384;2023-07-09T14:00:46;44.00;99.90
18779;DHT22;9518;51.720;14.384;2023-07-09T14:03:17;43.80;99.90
18779;DHT22;9518;51.720;14.384;2023-07-09T14:05:52;44.30;99.90
18779;DHT22;9518;51.720;14.384;2023-07-09T14:08:21;45.00;99.90
18779;DHT22;9518;51.720;14.384;2023-07-09T14:10:52;46.10;99.90
18779;DHT22;9518;51.720;14.384;2023-07-09T14:13:23;47.00;99.90
18779;DHT22;9518;51.720;14.384;2023-07-09T14:15:51;47.00;99.90
18779;DHT22;9518;51.720;14.384;2023-07-09T14:18:25;45.10;99.90
18779;DHT22;9518;51.720;14.384;2023-07-09T14:20:54;43.10;99.90
18779;DHT22;9518;51.720;14.384;2023-07-09T14:23:23;41.70;99.90
18779;DHT22;9518;51.720;14.384;2023-07-09T14:25:51;40.30;99.90
18779;DHT22;9518;51.720;14.384;2023-07-09T14:28:19;39.60;99.90
18779;DHT22;9518;51.720;14.384;2023-07-09T14:30:49;39.30;99.90
18779;DHT22;9518;51.720;14.384;2023-07-09T14:36:51;40.20;99.90
18779;DHT22;9518;51.720;14.384;2023-07-09T14:39:22;41.80;99.90
18779;DHT22;9518;51.720;14.384;2023-07-09T14:41:51;41.90;99.90
18779;DHT22;9518;51.720;14.384;2023-07-09T14:44:22;42.50;99.90
18779;DHT22;9518;51.720;14.384;2023-07-09T14:46:57;43.00;99.90
18779;DHT22;9518;51.720;14.384;2023-07-09T14:49:25;42.80;99.90
18779;DHT22;9518;51.720;14.384;2023-07-09T14:51:53;42.40;99.90
18779;DHT22;9518;51.720;14.384;2023-07-09T14:54:24;42.40;99.90
18779;DHT22;9518;51.720;14.384;2023-07-09T14:56:55;43.30;99.90
18779;DHT22;9518;51.720;14.384;2023-07-09T14:59:23;43.30;99.90
18779;DHT22;9518;51.720;14.384;2023-07-09T15:01:52;43.60;99.90
18779;DHT22;9518;51.720;14.384;2023-07-09T15:04:27;44.10;99.90
18779;DHT22;9518;51.720;14.384;2023-07-09T15:06:56;44.80;99.90
18779;DHT22;9518;51.720;14.384;2023-07-09T15:09:26;45.00;99.90
18779;DHT22;9518;51.720;14.384;2023-07-09T15:11:56;45.10;99.90
18779;DHT22;9518;51.720;14.384;2023-07-09T15:14:24;44.60;99.90
18779;DHT22;9518;51.720;14.384;2023-07-09T15:16:52;44.30;99.90
18779;DHT22;9518;51.720;14.384;2023-07-09T15:19:21;44.70;99.90
18779;DHT22;9518;51.720;14.384;2023-07-09T15:21:49;45.10;99.90
18779;DHT22;9518;51.720;14.384;2023-07-09T15:24:24;45.00;99.90
18779;DHT22;9518;51.720;14.384;2023-07-09T15:26:54;45.30;99.90
18779;DHT22;9518;51.720;14.384;2023-07-09T15:29:23;45.00;99.90
18779;DHT22;9518;51.720;14.384;2023-07-09T15:31:50;44.60;99.90
18779;DHT22;9518;51.720;14.384;2023-07-09T15:34:18;44.20;99.90
18779;DHT22;9518;51.720;14.384;2023-07-09T15:36:47;43.70;99.90
18779;DHT22;9518;51.720;14.384;2023-07-09T15:39:15;43.70;99.90
18779;DHT22;9518;51.720;14.384;2023-07-09T15:41:42;44.60;99.90
18779;DHT22;9518;51.720;14.384;2023-07-09T15:44:11;44.90;99.90
18779;DHT22;9518;51.720;14.384;2023-07-09T15:46:39;44.00;99.90
18779;DHT22;9518;51.720;14.384;2023-07-09T15:49:09;43.40;99.90
18779;DHT22;9518;51.720;14.384;2023-07-09T15:51:38;43.40;99.90
18779;DHT22;9518;51.720;14.384;2023-07-09T15:54:12;43.60;99.90
18779;DHT22;9518;51.720;14.384;2023-07-09T15:56:39;44.60;99.90
18779;DHT22;9518;51.720;14.384;2023-07-09T15:59:15;45.20;99.90
18779;DHT22;9518;51.720;14.384;2023-07-09T16:01:46;45.00;99.90
18779;DHT22;9518;51.720;14.384;2023-07-09T16:04:13;45.00;99.90
18779;DHT22;9518;51.720;14.384;2023-07-09T16:06:42;44.90;99.90